Time;durP1;ratioP1;P1;durP2;ratioP2;P2;SDS_P1;SDS_P2;PMS_P1;PMS_P2;Temp;Humidity;BMP_temperature;BMP_pressure;BME280_temperature;BME280_humidity;BME280_pressure;Samples;Min_cycle;Max_cycle;Signal;HPM_P1;HPM_P2
2022/01/31 00:00:11;;;;;;;15.20;4.73;;;4.50;99.90;;;;;;5053273;28;20492;-70
2022/01/31 00:02:39;;;;;;;18.53;3.57;;;4.40;99.90;;;;;;5053444;28;20451;-69
2022/01/31 00:05:06;;;;;;;12.70;4.43;;;4.40;99.90;;;;;;5052109;28;20868;-72
2022/01/31 00:07:33;;;;;;;16.63;3.93;;;4.40;99.90;;;;;;5053319;28;20478;-70
2022/01/31 00:10:05;;;;;;;12.73;4.00;;;4.40;99.90;;;;;;5053642;28;20521;-69
2022/01/31 00:12:37;;;;;;;14.70;4.30;;;4.50;99.90;;;;;;5053577;28;21019;-74
2022/01/31 00:15:05;;;;;;;18.53;3.47;;;4.50;99.90;;;;;;5053526;28;20454;-72
2022/01/31 00:17:33;;;;;;;29.23;3.63;;;4.50;99.90;;;;;;5053125;28;20946;-73
2022/01/31 00:20:00;;;;;;;13.57;4.03;;;4.40;99.90;;;;;;5053459;28;20457;-73
2022/01/31 00:22:27;;;;;;;9.37;3.90;;;4.40;99.90;;;;;;5052875;28;20472;-70
2022/01/31 00:24:54;;;;;;;16.23;3.50;;;4.50;99.90;;;;;;5052873;28;20540;-71
2022/01/31 00:27:21;;;;;;;11.23;4.20;;;4.50;99.90;;;;;;5053020;28;20496;-71
2022/01/31 00:29:48;;;;;;;10.00;3.30;;;4.40;99.90;;;;;;5053029;28;20934;-72
2022/01/31 00:32:15;;;;;;;9.63;4.20;;;4.40;99.90;;;;;;5053141;28;20456;-73
2022/01/31 00:34:44;;;;;;;14.87;3.80;;;4.30;99.90;;;;;;5052394;28;20449;-73
2022/01/31 00:37:10;;;;;;;17.10;3.53;;;4.40;99.90;;;;;;5052559;28;20529;-72
2022/01/31 00:39:38;;;;;;;19.67;3.93;;;4.30;99.90;;;;;;5052657;28;20946;-70
2022/01/31 00:42:07;;;;;;;13.23;3.70;;;4.40;99.90;;;;;;5052483;28;20973;-68
2022/01/31 00:44:44;;;;;;;13.60;3.33;;;4.40;99.90;;;;;;5052709;28;20491;-72
2022/01/31 00:47:21;;;;;;;12.60;4.10;;;4.40;99.90;;;;;;5052691;28;20475;-70
2022/01/31 00:49:52;;;;;;;9.30;3.73;;;4.40;99.90;;;;;;5052536;28;20473;-70
2022/01/31 00:52:20;;;;;;;12.10;3.20;;;4.40;99.90;;;;;;5052442;28;20449;-69
2022/01/31 00:54:48;;;;;;;12.57;2.90;;;4.40;99.90;;;;;;5052702;28;20448;-69
2022/01/31 00:57:15;;;;;;;17.20;3.60;;;4.30;99.90;;;;;;5052479;28;20551;-73
2022/01/31 00:59:42;;;;;;;12.13;3.00;;;4.30;99.90;;;;;;5052677;28;20507;-68
2022/01/31 01:02:09;;;;;;;8.73;3.10;;;4.40;99.90;;;;;;5052110;28;20956;-71
2022/01/31 01:04:36;;;;;;;11.73;4.27;;;4.40;99.90;;;;;;5052170;28;20485;-71
2022/01/31 01:07:05;;;;;;;12.77;2.43;;;4.40;99.90;;;;;;5052221;28;20475;-72
2022/01/31 01:09:32;;;;;;;12.37;2.77;;;4.50;99.90;;;;;;5051831;28;20457;-70
2022/01/31 01:11:59;;;;;;;14.47;4.40;;;4.40;99.90;;;;;;5051804;28;20466;-70
2022/01/31 01:14:26;;;;;;;15.23;3.73;;;4.40;99.90;;;;;;5052223;28;20454;-73
2022/01/31 01:16:53;;;;;;;10.93;3.47;;;4.40;99.90;;;;;;5051728;28;20492;-70
2022/01/31 01:19:20;;;;;;;18.93;4.07;;;4.40;99.90;;;;;;5050516;28;20508;-74
2022/01/31 01:21:47;;;;;;;15.93;4.00;;;4.40;99.90;;;;;;5051871;28;20460;-71
2022/01/31 01:24:16;;;;;;;12.73;3.10;;;4.40;99.90;;;;;;5051445;28;20547;-72
2022/01/31 01:26:43;;;;;;;17.37;3.70;;;4.50;99.90;;;;;;5052014;28;20480;-70
2022/01/31 01:29:10;;;;;;;7.93;2.90;;;4.40;99.90;;;;;;5051907;28;20450;-69
2022/01/31 01:31:38;;;;;;;15.03;3.07;;;4.30;99.90;;;;;;5051883;28;20454;-71
2022/01/31 01:34:05;;;;;;;8.73;2.50;;;4.30;99.90;;;;;;5051742;28;20916;-72
2022/01/31 01:36:32;;;;;;;17.20;3.50;;;4.30;99.90;;;;;;5051897;28;20600;-73
2022/01/31 01:38:59;;;;;;;14.93;2.80;;;4.30;99.90;;;;;;5051820;28;20531;-69
2022/01/31 01:41:29;;;;;;;13.70;3.43;;;4.30;99.90;;;;;;5051591;28;20460;-74
2022/01/31 01:43:56;;;;;;;7.50;2.80;;;4.30;99.90;;;;;;5051311;28;20468;-71
2022/01/31 01:46:23;;;;;;;16.87;3.10;;;4.30;99.90;;;;;;5051368;28;20454;-74
2022/01/31 01:48:50;;;;;;;11.43;3.53;;;4.30;99.90;;;;;;5051181;28;20461;-72
2022/01/31 01:51:17;;;;;;;10.00;3.30;;;4.30;99.90;;;;;;5051312;28;20510;-72
2022/01/31 01:53:45;;;;;;;9.37;3.20;;;4.30;99.90;;;;;;5051531;28;20452;-71
2022/01/31 01:56:13;;;;;;;11.93;3.10;;;4.30;99.90;;;;;;5051302;28;20504;-73
2022/01/31 01:58:44;;;;;;;9.90;2.87;;;4.40;99.90;;;;;;5051159;28;20459;-71
2022/01/31 02:01:12;;;;;;;10.50;3.53;;;4.40;99.90;;;;;;5051351;28;20936;-73
2022/01/31 02:03:41;;;;;;;9.40;3.07;;;4.40;99.90;;;;;;5051211;28;20452;-72
2022/01/31 02:06:09;;;;;;;7.00;2.37;;;4.40;99.90;;;;;;5051368;28;20486;-70
2022/01/31 02:08:42;;;;;;;11.83;3.20;;;4.40;99.90;;;;;;5050696;28;20531;-72
2022/01/31 02:11:10;;;;;;;6.70;2.77;;;4.40;99.90;;;;;;5050977;28;20566;-75
2022/01/31 02:13:38;;;;;;;11.43;2.67;;;4.30;99.90;;;;;;5051174;28;20455;-70
2022/01/31 02:16:08;;;;;;;7.03;2.73;;;4.30;99.90;;;;;;5051073;28;20452;-70
2022/01/31 02:18:37;;;;;;;6.90;2.73;;;4.20;99.90;;;;;;5049360;28;20572;-72
2022/01/31 02:21:07;;;;;;;13.50;3.50;;;4.30;99.90;;;;;;5050833;28;20847;-69
2022/01/31 02:23:34;;;;;;;21.73;3.60;;;4.20;99.90;;;;;;5050428;28;20456;-69
2022/01/31 02:26:07;;;;;;;22.30;3.80;;;4.30;99.90;;;;;;5050608;28;20499;-70
2022/01/31 02:28:39;;;;;;;7.17;3.03;;;4.40;99.90;;;;;;5050713;28;20487;-71
2022/01/31 02:31:06;;;;;;;10.63;3.43;;;4.50;99.90;;;;;;5050763;28;20483;-69
2022/01/31 02:33:34;;;;;;;8.13;2.60;;;4.60;99.90;;;;;;5050388;28;20453;-71
2022/01/31 02:36:03;;;;;;;8.93;2.60;;;4.60;99.90;;;;;;5050899;28;20810;-72
2022/01/31 02:38:32;;;;;;;9.80;2.57;;;4.60;99.90;;;;;;5050266;28;20527;-68
2022/01/31 02:41:00;;;;;;;10.10;2.30;;;4.70;99.90;;;;;;5050633;28;20856;-71
2022/01/31 02:43:28;;;;;;;7.50;3.00;;;4.60;99.90;;;;;;5050702;28;20539;-71
2022/01/31 02:45:56;;;;;;;11.70;2.70;;;4.60;99.90;;;;;;5050279;28;20493;-72
2022/01/31 02:48:25;;;;;;;13.50;3.50;;;4.70;99.90;;;;;;5049856;28;20477;-73
2022/01/31 02:50:53;;;;;;;13.13;3.07;;;4.70;99.90;;;;;;5050210;28;20464;-72
2022/01/31 02:53:25;;;;;;;12.80;2.60;;;4.70;99.90;;;;;;5049990;28;20451;-74
2022/01/31 02:55:55;;;;;;;7.47;2.50;;;4.70;99.90;;;;;;5050159;28;20490;-72
2022/01/31 02:58:23;;;;;;;12.23;2.77;;;4.40;99.90;;;;;;5050315;28;20462;-69
2022/01/31 03:00:51;;;;;;;12.27;2.97;;;4.30;99.90;;;;;;5049838;28;20929;-73
2022/01/31 03:03:18;;;;;;;8.60;2.60;;;4.30;99.90;;;;;;5050164;28;20516;-72
2022/01/31 03:05:45;;;;;;;7.60;2.30;;;4.40;99.90;;;;;;5050311;28;20488;-70
2022/01/31 03:08:12;;;;;;;9.27;2.87;;;4.30;99.90;;;;;;5050117;28;20473;-75
2022/01/31 03:10:39;;;;;;;12.50;2.47;;;4.40;99.90;;;;;;5050073;28;20516;-74
2022/01/31 03:13:08;;;;;;;10.30;3.00;;;4.30;99.90;;;;;;5050258;28;20468;-71
2022/01/31 03:15:35;;;;;;;7.80;2.40;;;4.30;99.90;;;;;;5049704;28;20455;-73
2022/01/31 03:18:05;;;;;;;15.20;2.73;;;4.30;99.90;;;;;;5049511;28;20840;-71
2022/01/31 03:20:32;;;;;;;8.17;3.00;;;4.40;99.90;;;;;;5049986;28;20488;-71
2022/01/31 03:22:59;;;;;;;11.23;1.87;;;4.20;99.90;;;;;;5049671;28;20466;-70
2022/01/31 03:25:27;;;;;;;9.83;2.43;;;4.30;99.90;;;;;;5049976;28;20962;-69
2022/01/31 03:27:55;;;;;;;7.53;2.73;;;4.30;99.90;;;;;;5049580;28;20477;-74
2022/01/31 03:30:25;;;;;;;9.83;2.80;;;4.50;99.90;;;;;;5049923;28;20533;-72
2022/01/31 03:32:52;;;;;;;8.50;2.40;;;4.50;99.90;;;;;;5048820;28;20954;-72
2022/01/31 03:35:20;;;;;;;8.20;2.20;;;4.40;99.90;;;;;;5050096;28;20458;-74
2022/01/31 03:37:47;;;;;;;7.83;2.13;;;4.30;99.90;;;;;;5049833;28;20475;-70
2022/01/31 03:40:14;;;;;;;7.27;2.47;;;4.40;99.90;;;;;;5049800;28;20519;-70
2022/01/31 03:42:41;;;;;;;9.20;3.10;;;4.40;99.90;;;;;;5049685;28;20449;-74
2022/01/31 03:45:11;;;;;;;14.37;4.23;;;4.40;99.90;;;;;;5049567;28;20618;-72
2022/01/31 03:47:44;;;;;;;8.60;2.53;;;4.50;99.90;;;;;;5049496;28;21043;-70
2022/01/31 03:50:13;;;;;;;13.37;2.60;;;4.50;99.90;;;;;;5049715;28;20541;-73
2022/01/31 03:52:42;;;;;;;10.30;3.23;;;4.50;99.90;;;;;;5049077;28;20451;-72
2022/01/31 03:55:11;;;;;;;7.27;3.13;;;4.40;99.90;;;;;;5049649;28;20576;-69
2022/01/31 03:57:38;;;;;;;8.97;2.97;;;4.40;99.90;;;;;;5049673;28;20475;-72
2022/01/31 04:00:07;;;;;;;11.43;2.60;;;4.40;99.90;;;;;;5049515;28;20455;-71
2022/01/31 04:02:34;;;;;;;6.23;2.40;;;4.50;99.90;;;;;;5049602;28;20530;-72
2022/01/31 04:05:03;;;;;;;8.13;2.90;;;4.40;99.90;;;;;;5049462;28;20487;-71
2022/01/31 04:07:30;;;;;;;7.20;2.37;;;4.30;99.90;;;;;;5049267;28;20548;-71
2022/01/31 04:09:57;;;;;;;11.00;3.50;;;4.20;99.90;;;;;;5048117;28;20505;-70
2022/01/31 04:12:24;;;;;;;10.77;3.07;;;4.20;99.90;;;;;;5049330;28;20450;-71
2022/01/31 04:14:51;;;;;;;9.70;2.37;;;4.20;99.90;;;;;;5049429;28;20861;-74
2022/01/31 04:17:20;;;;;;;7.80;2.70;;;4.10;99.90;;;;;;5048749;28;20482;-71
2022/01/31 04:19:47;;;;;;;15.70;3.30;;;4.10;99.90;;;;;;5049300;28;20568;-72
2022/01/31 04:22:19;;;;;;;13.10;3.03;;;4.00;99.90;;;;;;5049003;28;20520;-69
2022/01/31 04:24:48;;;;;;;7.30;2.57;;;3.90;99.90;;;;;;5049261;28;20588;-70
2022/01/31 04:27:18;;;;;;;8.40;2.37;;;4.00;99.90;;;;;;5049301;28;20475;-72
2022/01/31 04:29:48;;;;;;;8.37;2.40;;;3.90;99.90;;;;;;5049349;28;20453;-73
2022/01/31 04:32:15;;;;;;;10.10;2.90;;;3.90;99.90;;;;;;5049351;28;20458;-70
2022/01/31 04:34:42;;;;;;;13.13;3.23;;;4.10;99.90;;;;;;5049380;28;20453;-73
2022/01/31 04:37:10;;;;;;;11.70;2.90;;;4.10;99.90;;;;;;5049281;28;20534;-70
2022/01/31 04:39:39;;;;;;;7.57;3.10;;;4.10;99.90;;;;;;5049023;28;20469;-74
2022/01/31 04:42:07;;;;;;;9.10;3.30;;;4.00;99.90;;;;;;5049086;28;20987;-73
2022/01/31 04:44:35;;;;;;;14.20;2.90;;;3.80;99.90;;;;;;5050155;28;20778;-71
2022/01/31 04:47:03;;;;;;;7.93;2.60;;;3.80;99.90;;;;;;5052193;28;20504;-74
2022/01/31 04:49:30;;;;;;;8.00;3.27;;;3.70;99.90;;;;;;5052480;28;20507;-74
2022/01/31 04:51:57;;;;;;;8.00;2.50;;;3.70;99.90;;;;;;5052516;28;20473;-70
2022/01/31 04:54:24;;;;;;;11.23;2.17;;;3.80;99.90;;;;;;5052538;28;20451;-74
2022/01/31 04:56:53;;;;;;;10.23;2.80;;;3.80;99.90;;;;;;5052673;28;20849;-70
2022/01/31 04:59:20;;;;;;;11.10;2.30;;;3.80;99.90;;;;;;5052486;28;20482;-69
2022/01/31 05:01:48;;;;;;;12.40;3.10;;;3.90;99.90;;;;;;5052634;28;20819;-71
2022/01/31 05:04:16;;;;;;;9.50;2.83;;;3.90;99.90;;;;;;5052643;28;20495;-71
2022/01/31 05:06:45;;;;;;;9.20;3.40;;;4.10;99.90;;;;;;5052360;28;20485;-71
2022/01/31 05:09:12;;;;;;;11.47;2.90;;;3.90;99.90;;;;;;5052280;28;20480;-72
2022/01/31 05:11:40;;;;;;;9.60;3.00;;;3.80;99.90;;;;;;5052326;28;20487;-70
2022/01/31 05:14:08;;;;;;;25.13;3.20;;;3.90;99.90;;;;;;5052226;28;20788;-73
2022/01/31 05:16:35;;;;;;;8.50;2.53;;;3.80;99.90;;;;;;5051843;28;20511;-70
2022/01/31 05:19:03;;;;;;;7.87;2.27;;;3.80;99.90;;;;;;5052018;28;20867;-72
2022/01/31 05:21:30;;;;;;;6.53;2.70;;;3.70;99.90;;;;;;5052299;28;20596;-71
2022/01/31 05:23:57;;;;;;;8.40;2.77;;;3.70;99.90;;;;;;5052068;28;20480;-71
2022/01/31 05:26:24;;;;;;;10.73;3.80;;;3.70;99.90;;;;;;5052049;28;20491;-71
2022/01/31 05:28:52;;;;;;;9.10;3.37;;;3.70;99.90;;;;;;5051610;28;20962;-72
2022/01/31 05:31:21;;;;;;;9.53;2.77;;;3.70;99.90;;;;;;5051852;28;20464;-73
2022/01/31 05:33:48;;;;;;;7.67;2.30;;;3.70;99.90;;;;;;5051637;28;20453;-71
2022/01/31 05:36:15;;;;;;;7.00;2.53;;;3.60;99.90;;;;;;5051680;28;20504;-70
2022/01/31 05:38:42;;;;;;;4.40;2.20;;;3.50;99.90;;;;;;5051738;28;20534;-71
2022/01/31 05:41:16;;;;;;;7.83;2.83;;;3.50;99.90;;;;;;5051667;28;20873;-75
2022/01/31 05:43:44;;;;;;;8.10;2.77;;;3.40;99.90;;;;;;5051550;28;21005;-69
2022/01/31 05:46:11;;;;;;;9.77;3.00;;;3.30;99.90;;;;;;5051368;28;20557;-74
2022/01/31 05:48:39;;;;;;;8.70;3.00;;;3.30;99.90;;;;;;5051567;28;20529;-70
2022/01/31 05:51:12;;;;;;;7.70;2.33;;;3.40;99.90;;;;;;5051585;28;20841;-73
2022/01/31 05:53:39;;;;;;;11.57;3.20;;;3.30;99.90;;;;;;5051439;28;20960;-70
2022/01/31 05:56:08;;;;;;;10.37;3.30;;;3.30;99.90;;;;;;5051031;28;20922;-72
2022/01/31 05:58:36;;;;;;;7.00;2.50;;;3.40;99.90;;;;;;5051352;28;20477;-68
2022/01/31 06:01:03;;;;;;;7.23;3.50;;;3.40;99.90;;;;;;5051360;28;20469;-72
2022/01/31 06:03:30;;;;;;;8.10;3.07;;;3.40;99.90;;;;;;5051366;28;20930;-71
2022/01/31 06:05:58;;;;;;;6.97;2.83;;;3.40;99.90;;;;;;5051219;28;21120;-70
2022/01/31 06:08:26;;;;;;;10.07;3.13;;;3.40;99.90;;;;;;5050798;28;20555;-72
2022/01/31 06:10:53;;;;;;;4.60;2.63;;;3.50;99.90;;;;;;5051244;28;21108;-69
2022/01/31 06:13:23;;;;;;;6.37;2.70;;;3.50;99.90;;;;;;5050889;28;20507;-72
2022/01/31 06:15:51;;;;;;;12.63;3.03;;;3.60;99.90;;;;;;5051102;28;20478;-71
2022/01/31 06:18:18;;;;;;;7.60;2.43;;;3.70;99.90;;;;;;5050893;28;20489;-72
2022/01/31 06:20:45;;;;;;;7.70;3.00;;;3.80;99.90;;;;;;5051134;28;20466;-73
2022/01/31 06:23:13;;;;;;;9.37;2.90;;;3.90;99.90;;;;;;5050310;28;20467;-73
2022/01/31 06:25:41;;;;;;;12.53;3.03;;;3.70;99.90;;;;;;5050660;28;20488;-71
2022/01/31 06:28:08;;;;;;;16.43;3.07;;;3.70;99.90;;;;;;5050634;28;20450;-72
2022/01/31 06:30:36;;;;;;;7.07;2.80;;;3.70;99.90;;;;;;5050610;28;20812;-70
2022/01/31 06:33:03;;;;;;;6.27;3.37;;;3.70;99.90;;;;;;5050688;28;20507;-71
2022/01/31 06:35:31;;;;;;;4.53;2.80;;;3.60;99.90;;;;;;5050277;28;20461;-71
2022/01/31 06:37:58;;;;;;;9.77;4.00;;;3.70;99.90;;;;;;5050539;28;20457;-71
2022/01/31 06:40:26;;;;;;;8.60;2.93;;;3.70;99.90;;;;;;5050548;28;20462;-70
2022/01/31 06:42:53;;;;;;;6.30;2.60;;;3.70;99.90;;;;;;5050381;28;20515;-71
2022/01/31 06:45:21;;;;;;;9.60;2.83;;;3.60;99.90;;;;;;5050362;28;20469;-70
2022/01/31 06:47:48;;;;;;;6.27;2.70;;;3.40;99.90;;;;;;5050744;28;20456;-72
2022/01/31 06:50:15;;;;;;;10.00;2.77;;;3.60;99.90;;;;;;5050381;28;20472;-71
2022/01/31 06:52:42;;;;;;;9.00;2.63;;;3.70;99.90;;;;;;5050203;28;20458;-68
2022/01/31 06:55:18;;;;;;;8.23;2.40;;;3.80;99.90;;;;;;5050648;28;20487;-69
2022/01/31 06:57:47;;;;;;;7.57;2.17;;;3.80;99.90;;;;;;5050263;28;20459;-71
2022/01/31 07:00:17;;;;;;;8.73;2.50;;;3.80;99.90;;;;;;5050412;28;20991;-72
2022/01/31 07:02:45;;;;;;;9.80;3.47;;;3.80;99.90;;;;;;5050204;28;20453;-73
2022/01/31 07:05:12;;;;;;;11.60;3.07;;;3.80;99.90;;;;;;5050390;28;20511;-71
2022/01/31 07:07:40;;;;;;;8.33;2.90;;;4.00;99.90;;;;;;5049630;28;20488;-70
2022/01/31 07:10:08;;;;;;;7.23;2.73;;;4.10;99.90;;;;;;5049702;28;20501;-71
2022/01/31 07:12:38;;;;;;;7.57;3.00;;;4.30;99.90;;;;;;5049961;28;21544;-73
2022/01/31 07:15:09;;;;;;;14.93;2.93;;;4.10;99.90;;;;;;5049570;28;20461;-73
2022/01/31 07:17:37;;;;;;;15.87;2.93;;;4.20;99.90;;;;;;5049605;28;20502;-70
2022/01/31 07:20:08;;;;;;;14.27;3.30;;;4.10;99.90;;;;;;5049986;28;20863;-70
2022/01/31 07:22:37;;;;;;;11.00;3.80;;;4.30;99.90;;;;;;5049722;28;20465;-73
2022/01/31 07:25:08;;;;;;;9.77;3.20;;;4.50;99.90;;;;;;5049871;28;20512;-71
2022/01/31 07:27:36;;;;;;;8.93;2.83;;;4.70;99.90;;;;;;5049693;28;20496;-74
2022/01/31 07:30:04;;;;;;;7.93;2.80;;;4.80;99.90;;;;;;5049624;28;20540;-70
2022/01/31 07:32:40;;;;;;;6.20;2.63;;;4.80;99.60;;;;;;5049881;28;20865;-72
2022/01/31 07:35:08;;;;;;;10.10;2.77;;;4.80;98.80;;;;;;5049603;28;20461;-71
2022/01/31 07:37:35;;;;;;;9.33;2.73;;;4.40;98.60;;;;;;5049794;28;20453;-69
2022/01/31 07:40:05;;;;;;;11.73;3.60;;;4.50;99.50;;;;;;5049720;28;20497;-69
2022/01/31 07:42:32;;;;;;;8.70;3.57;;;4.70;99.20;;;;;;5049635;28;20853;-69
2022/01/31 07:44:59;;;;;;;11.43;3.60;;;4.60;98.50;;;;;;5049583;28;20521;-67
2022/01/31 07:47:26;;;;;;;9.77;3.57;;;4.80;98.50;;;;;;5049424;28;20498;-69
2022/01/31 07:49:54;;;;;;;14.17;4.43;;;4.80;97.60;;;;;;5049475;28;20467;-74
2022/01/31 07:52:22;;;;;;;8.60;2.83;;;4.60;97.00;;;;;;5049519;28;20465;-73
2022/01/31 07:54:49;;;;;;;13.43;3.70;;;4.70;97.30;;;;;;5049393;28;20472;-73
2022/01/31 07:57:16;;;;;;;8.93;2.57;;;4.80;96.40;;;;;;5048294;28;20949;-72
2022/01/31 07:59:44;;;;;;;7.67;3.00;;;4.80;96.30;;;;;;5049440;28;20482;-74
2022/01/31 08:02:11;;;;;;;13.43;3.43;;;4.80;96.00;;;;;;5049626;28;20802;-73
2022/01/31 08:04:38;;;;;;;7.03;2.57;;;4.90;96.90;;;;;;5049617;28;20789;-69
2022/01/31 08:07:06;;;;;;;12.40;3.40;;;5.10;95.20;;;;;;5049465;28;20489;-67
2022/01/31 08:09:33;;;;;;;8.67;2.80;;;5.40;95.20;;;;;;5046400;28;20946;-70
2022/01/31 08:12:00;;;;;;;5.90;2.43;;;5.70;94.80;;;;;;5049225;28;20453;-70
2022/01/31 08:14:29;;;;;;;8.70;2.77;;;5.80;94.10;;;;;;5049424;28;20449;-72
2022/01/31 08:16:56;;;;;;;8.60;2.80;;;6.00;93.00;;;;;;5048971;28;20888;-69
2022/01/31 08:19:23;;;;;;;8.80;1.97;;;6.20;92.60;;;;;;5049414;28;20478;-72
2022/01/31 08:21:51;;;;;;;8.93;2.60;;;6.20;91.60;;;;;;5052334;28;20518;-70
2022/01/31 08:24:19;;;;;;;8.70;4.73;;;6.00;91.10;;;;;;5052726;28;20475;-69
2022/01/31 08:26:46;;;;;;;10.80;2.90;;;6.00;91.60;;;;;;5052966;28;20493;-72
2022/01/31 08:29:21;;;;;;;9.20;3.17;;;6.00;91.60;;;;;;5052131;28;20482;-70
2022/01/31 08:31:52;;;;;;;8.07;2.67;;;6.00;91.30;;;;;;5052226;28;20465;-70
2022/01/31 08:34:24;;;;;;;10.07;2.97;;;6.20;90.90;;;;;;5052771;28;20450;-68
2022/01/31 08:36:52;;;;;;;8.23;3.10;;;6.40;91.10;;;;;;5052700;28;20800;-71
2022/01/31 08:39:22;;;;;;;8.83;2.70;;;6.60;90.70;;;;;;5052576;28;20492;-67
2022/01/31 08:41:51;;;;;;;8.80;2.83;;;6.70;87.90;;;;;;5052791;28;20486;-69
2022/01/31 08:44:20;;;;;;;13.07;3.13;;;6.70;86.70;;;;;;5052825;28;20455;-70
2022/01/31 08:46:49;;;;;;;8.20;2.30;;;6.60;85.80;;;;;;5052758;28;20491;-71
2022/01/31 08:49:17;;;;;;;9.00;2.07;;;6.80;86.50;;;;;;5052863;28;20918;-70
2022/01/31 08:51:46;;;;;;;9.20;2.53;;;6.80;83.30;;;;;;5052773;28;20455;-72
2022/01/31 08:54:14;;;;;;;6.47;2.30;;;7.00;83.20;;;;;;5052387;28;20454;-71
2022/01/31 08:56:45;;;;;;;12.30;2.40;;;7.10;82.80;;;;;;5052599;28;20447;-69
2022/01/31 08:59:16;;;;;;;6.60;2.90;;;7.10;80.50;;;;;;5050970;28;20466;-71
2022/01/31 09:01:51;;;;;;;6.00;2.37;;;7.00;80.90;;;;;;5051817;28;20490;-69
2022/01/31 09:04:31;;;;;;;7.30;2.23;;;7.30;80.10;;;;;;5052146;28;20501;-70
2022/01/31 09:06:59;;;;;;;9.93;2.50;;;7.40;78.70;;;;;;5052285;28;20878;-72
2022/01/31 09:09:26;;;;;;;11.23;3.30;;;7.60;79.00;;;;;;5051555;28;20533;-72
2022/01/31 09:11:57;;;;;;;9.63;2.40;;;7.80;77.40;;;;;;5052117;28;20442;-73
2022/01/31 09:14:24;;;;;;;6.60;2.30;;;7.80;76.80;;;;;;5052232;28;20792;-74
2022/01/31 09:16:51;;;;;;;9.17;2.80;;;7.80;76.60;;;;;;5051561;28;20854;-69
2022/01/31 09:19:20;;;;;;;4.73;1.83;;;7.70;76.00;;;;;;5052145;28;20862;-70
2022/01/31 09:21:48;;;;;;;9.80;2.60;;;7.80;75.20;;;;;;5051847;28;20459;-69
2022/01/31 09:24:15;;;;;;;7.47;2.80;;;7.90;73.80;;;;;;5051698;28;21269;-71
2022/01/31 09:26:42;;;;;;;8.53;3.10;;;7.90;74.70;;;;;;5051674;28;21047;-75
2022/01/31 09:29:12;;;;;;;9.37;3.03;;;8.10;74.30;;;;;;5051645;28;20472;-72
2022/01/31 09:31:39;;;;;;;8.77;3.33;;;8.20;74.30;;;;;;5050732;28;20468;-72
2022/01/31 09:34:06;;;;;;;6.90;2.07;;;8.50;72.70;;;;;;5050224;28;20449;-72
2022/01/31 09:36:33;;;;;;;6.67;2.53;;;8.50;71.30;;;;;;5051817;28;20477;-72
2022/01/31 09:39:01;;;;;;;10.30;3.17;;;8.30;71.30;;;;;;5051075;28;20529;-71
2022/01/31 09:41:29;;;;;;;7.47;3.13;;;8.60;71.90;;;;;;5051315;28;20464;-73
2022/01/31 09:44:14;;;;;;;8.47;3.27;;;8.80;71.40;;;;;;5051733;28;20949;-73
2022/01/31 09:46:52;;;;;;;8.73;2.60;;;8.80;69.90;;;;;;5051332;28;20599;-68
2022/01/31 09:49:23;;;;;;;10.17;3.30;;;8.60;71.30;;;;;;5051606;28;20480;-71
2022/01/31 09:51:51;;;;;;;9.03;3.30;;;8.70;69.10;;;;;;5051393;28;20489;-74
2022/01/31 09:54:18;;;;;;;10.43;3.00;;;8.80;68.40;;;;;;5051396;28;20452;-72
2022/01/31 09:56:47;;;;;;;8.10;2.40;;;8.50;65.80;;;;;;5051362;28;20794;-73
2022/01/31 09:59:16;;;;;;;10.70;2.83;;;8.40;67.50;;;;;;5051277;28;20591;-71
2022/01/31 10:01:47;;;;;;;7.60;3.07;;;8.70;67.10;;;;;;5051133;28;20463;-73
2022/01/31 10:04:18;;;;;;;7.70;3.13;;;8.80;68.30;;;;;;5051225;28;20509;-73
2022/01/31 10:06:47;;;;;;;5.37;2.10;;;8.90;68.40;;;;;;5051131;28;20488;-72
2022/01/31 10:09:17;;;;;;;13.53;2.63;;;8.90;67.80;;;;;;5050680;28;20481;-72
2022/01/31 10:11:49;;;;;;;11.80;3.33;;;8.50;66.40;;;;;;5031174;28;20457;-74
2022/01/31 10:17:11;;;;;;;9.40;3.30;;;8.90;67.00;;;;;;5031103;28;20516;-71
2022/01/31 10:19:45;;;;;;;6.53;2.67;;;8.80;66.30;;;;;;5031063;28;20486;-73
2022/01/31 10:22:15;;;;;;;15.20;3.10;;;8.60;66.40;;;;;;5031127;28;20613;-75
2022/01/31 10:24:45;;;;;;;5.37;2.53;;;8.30;66.30;;;;;;5031335;28;20925;-71
2022/01/31 10:27:18;;;;;;;5.90;2.30;;;8.20;65.40;;;;;;5030609;28;21003;-70
2022/01/31 10:29:46;;;;;;;11.53;2.40;;;8.30;66.10;;;;;;5031671;28;21071;-72
2022/01/31 10:32:21;;;;;;;8.93;2.67;;;8.90;67.10;;;;;;5031862;28;20892;-74
2022/01/31 10:34:51;;;;;;;9.50;2.70;;;9.30;64.70;;;;;;5030739;28;20460;-73
2022/01/31 10:37:21;;;;;;;8.20;2.23;;;9.10;61.70;;;;;;5030374;28;20814;-73
2022/01/31 10:45:33;;;;;;;8.80;2.77;;;9.80;62.20;;;;;;5030561;28;20437;-73
2022/01/31 10:53:45;;;;;;;6.33;2.63;;;9.80;59.00;;;;;;5029804;28;20481;-70
2022/01/31 10:56:13;;;;;;;9.97;2.60;;;10.10;58.40;;;;;;5030224;28;20461;-72
2022/01/31 10:58:57;;;;;;;8.50;2.10;;;10.10;57.00;;;;;;5030044;28;20994;-70
2022/01/31 11:01:25;;;;;;;6.60;1.90;;;10.00;57.80;;;;;;5030543;28;20427;-71
2022/01/31 11:03:54;;;;;;;7.47;1.90;;;10.10;57.10;;;;;;5030452;28;20519;-75
2022/01/31 11:06:23;;;;;;;6.03;2.27;;;10.10;56.70;;;;;;5029977;28;20449;-73
2022/01/31 11:08:51;;;;;;;7.40;2.00;;;10.40;57.40;;;;;;5030168;28;20506;-75
2022/01/31 11:11:19;;;;;;;5.60;1.77;;;10.90;56.40;;;;;;5049800;28;20468;-73
2022/01/31 11:13:49;;;;;;;10.40;2.60;;;10.90;55.00;;;;;;5049965;28;20808;-71
2022/01/31 11:16:18;;;;;;;7.53;2.57;;;10.90;55.00;;;;;;5048451;28;20533;-74
2022/01/31 11:18:45;;;;;;;5.97;2.03;;;11.00;55.30;;;;;;5049872;28;20493;-74
2022/01/31 11:21:14;;;;;;;9.33;2.37;;;11.00;53.60;;;;;;5049700;28;20508;-71
2022/01/31 11:23:49;;;;;;;5.53;1.90;;;10.90;53.70;;;;;;5049892;28;20461;-74
2022/01/31 11:26:20;;;;;;;5.27;1.47;;;11.30;54.50;;;;;;5051547;28;20476;-73
2022/01/31 11:28:49;;;;;;;10.20;2.33;;;11.50;53.60;;;;;;5054200;28;20922;-75
2022/01/31 11:31:17;;;;;;;9.17;2.20;;;11.70;53.60;;;;;;5054825;28;21024;-69
2022/01/31 11:33:46;;;;;;;6.47;2.50;;;11.80;52.80;;;;;;5057369;28;20461;-69
2022/01/31 11:36:15;;;;;;;8.30;2.27;;;12.30;52.00;;;;;;5053257;28;20959;-72
2022/01/31 11:38:44;;;;;;;8.07;2.20;;;12.20;50.40;;;;;;5050854;28;20478;-71
2022/01/31 11:41:11;;;;;;;6.67;1.90;;;12.10;50.90;;;;;;5050571;28;20449;-65
2022/01/31 11:43:39;;;;;;;5.33;2.00;;;12.30;49.30;;;;;;5049350;28;20615;-71
2022/01/31 11:46:09;;;;;;;11.33;2.53;;;12.30;49.20;;;;;;5049402;28;20519;-71
2022/01/31 11:48:38;;;;;;;5.17;2.10;;;12.10;48.80;;;;;;5049231;28;20500;-73
2022/01/31 11:51:05;;;;;;;7.00;2.10;;;12.00;49.10;;;;;;5049275;28;20511;-72
2022/01/31 11:53:36;;;;;;;5.70;2.33;;;12.70;50.40;;;;;;5049320;28;20547;-74
2022/01/31 11:56:08;;;;;;;8.53;2.20;;;12.40;48.80;;;;;;5053126;28;20449;-74
2022/01/31 11:58:43;;;;;;;4.77;1.63;;;12.40;48.10;;;;;;5053338;28;20474;-72
2022/01/31 12:01:10;;;;;;;5.80;1.70;;;12.10;47.10;;;;;;5052963;28;20457;-73
2022/01/31 12:03:49;;;;;;;9.23;2.77;;;12.00;47.80;;;;;;5053206;28;20953;-74
2022/01/31 12:06:22;;;;;;;7.23;2.70;;;12.30;49.40;;;;;;5053085;28;20536;-71
2022/01/31 12:08:52;;;;;;;7.30;2.00;;;12.90;48.90;;;;;;5052373;28;20493;-74
2022/01/31 12:11:25;;;;;;;6.00;1.87;;;12.90;47.70;;;;;;5053021;28;20461;-74
2022/01/31 12:13:56;;;;;;;4.40;1.60;;;13.20;48.00;;;;;;5052867;28;20454;-74
2022/01/31 12:16:50;;;;;;;9.63;2.60;;;13.40;47.60;;;;;;5052811;28;20527;-75
2022/01/31 12:19:58;;;;;;;5.77;1.83;;;13.70;44.80;;;;;;5053020;28;20946;-71
2022/01/31 12:22:44;;;;;;;5.50;2.10;;;13.20;45.60;;;;;;5052667;28;20523;-71
2022/01/31 12:25:29;;;;;;;6.10;2.83;;;13.70;47.40;;;;;;5052981;28;20960;-71
2022/01/31 12:27:57;;;;;;;6.90;2.10;;;14.40;45.80;;;;;;5051564;28;20998;-73
2022/01/31 12:30:34;;;;;;;6.37;1.60;;;14.30;44.60;;;;;;5052748;28;20457;-71
2022/01/31 12:33:02;;;;;;;9.27;1.80;;;14.20;42.40;;;;;;5052824;28;20460;-72
2022/01/31 12:35:35;;;;;;;4.10;1.50;;;13.80;42.60;;;;;;5052735;28;20826;-75
2022/01/31 12:38:03;;;;;;;5.53;1.53;;;14.20;45.20;;;;;;5052627;28;20464;-73
2022/01/31 12:40:39;;;;;;;6.80;1.60;;;14.10;43.20;;;;;;5052429;28;20942;-73
2022/01/31 12:46:07;;;;;;;9.30;1.90;;;14.00;43.30;;;;;;5052527;28;20442;-73
2022/01/31 12:48:35;;;;;;;7.97;2.10;;;14.00;43.50;;;;;;5052065;28;20485;-74
2022/01/31 12:51:15;;;;;;;6.10;1.70;;;14.20;43.50;;;;;;5052012;28;20457;-74
2022/01/31 12:53:48;;;;;;;6.80;2.30;;;14.80;42.10;;;;;;5052246;28;20540;-72
2022/01/31 12:56:24;;;;;;;5.60;2.03;;;14.60;42.00;;;;;;5052290;28;20483;-70
2022/01/31 12:58:54;;;;;;;7.63;1.90;;;14.60;41.50;;;;;;5052060;28;20935;-69
2022/01/31 13:01:24;;;;;;;8.03;2.00;;;14.20;41.50;;;;;;5052119;28;20511;-73
2022/01/31 13:03:53;;;;;;;9.33;2.20;;;13.90;41.30;;;;;;5052365;28;20888;-74
2022/01/31 13:06:45;;;;;;;6.93;2.20;;;13.90;42.10;;;;;;5050512;28;21032;-73
2022/01/31 13:09:21;;;;;;;4.90;1.47;;;13.80;41.10;;;;;;5051506;28;20492;-74
2022/01/31 13:11:52;;;;;;;5.77;1.80;;;13.70;41.70;;;;;;5051918;28;20489;-73
2022/01/31 13:14:22;;;;;;;5.57;1.63;;;13.90;41.50;;;;;;5052042;28;20531;-72
2022/01/31 13:17:00;;;;;;;7.60;2.10;;;14.30;41.90;;;;;;5051671;28;20585;-72